Time;durP1;ratioP1;P1;durP2;ratioP2;P2;SDS_P1;SDS_P2;PMS_P1;PMS_P2;Temp;Humidity;BMP_temperature;BMP_pressure;BME280_temperature;BME280_humidity;BME280_pressure;Samples;Min_cycle;Max_cycle;Signal;HPM_P1;HPM_P2
2023/07/13 00:02:54;;;;;;;6.00;1.20;;;;;;;18.86;69.76;100517.72;8291282;28;25834;-62
2023/07/13 00:06:55;;;;;;;4.10;1.15;;;;;;;19.07;69.13;100516.91;8291319;28;20046;-62
2023/07/13 00:10:56;;;;;;;4.95;1.02;;;;;;;19.23;69.13;100522.09;8291143;28;20099;-62
2023/07/13 00:14:59;;;;;;;4.22;0.70;;;;;;;19.23;68.51;100528.44;8290348;28;20495;-62
2023/07/13 00:19:00;;;;;;;2.87;0.90;;;;;;;19.14;68.82;100524.13;8290956;28;20081;-62
2023/07/13 00:23:01;;;;;;;2.90;0.70;;;;;;;19.12;69.05;100520.72;8290994;28;20094;-62
2023/07/13 00:27:02;;;;;;;2.60;0.60;;;;;;;18.92;69.72;100522.44;8290547;28;20037;-62
2023/07/13 00:31:03;;;;;;;4.13;0.80;;;;;;;18.94;70.16;100524.97;8290335;28;20409;-62
2023/07/13 00:35:04;;;;;;;5.45;0.98;;;;;;;18.99;70.03;100526.09;8290184;28;20068;-62
2023/07/13 00:39:05;;;;;;;4.15;0.90;;;;;;;18.90;70.13;100527.25;8290585;28;20033;-62
2023/07/13 00:43:22;;;;;;;3.20;0.80;;;;;;;18.84;70.49;100525.28;8290232;28;20491;-62
2023/07/13 00:47:23;;;;;;;2.33;0.70;;;;;;;18.80;70.42;100525.84;8288009;28;20404;-62
2023/07/13 00:51:29;;;;;;;3.75;0.80;;;;;;;18.82;70.88;100530.09;8290809;28;20037;-62
2023/07/13 00:55:30;;;;;;;3.75;0.60;;;;;;;18.79;70.41;100525.00;8291222;28;20530;-62
2023/07/13 00:59:31;;;;;;;4.97;0.70;;;;;;;18.77;70.69;100520.75;8288671;28;20470;-62
2023/07/13 01:03:32;;;;;;;3.10;0.80;;;;;;;18.79;70.73;100514.03;8289099;28;20046;-62
2023/07/13 01:07:32;;;;;;;4.30;0.75;;;;;;;18.69;71.05;100513.50;8288092;28;20558;-62
2023/07/13 01:11:34;;;;;;;4.35;0.80;;;;;;;18.75;70.59;100506.41;8289829;28;20045;-62
2023/07/13 01:15:41;;;;;;;6.43;1.30;;;;;;;18.77;70.66;100505.19;8288582;28;20133;-62
2023/07/13 01:19:44;;;;;;;4.07;0.95;;;;;;;18.77;70.99;100505.19;8286392;28;20072;-62
2023/07/13 01:23:45;;;;;;;2.22;0.70;;;;;;;18.80;70.96;100504.81;8291250;28;20034;-62
2023/07/13 01:27:45;;;;;;;3.67;0.85;;;;;;;18.57;71.38;100503.25;8287500;28;20034;-62
2023/07/13 01:31:46;;;;;;;5.32;0.80;;;;;;;18.24;72.89;100507.44;8285843;28;20044;-62
2023/07/13 01:35:47;;;;;;;1.42;0.55;;;;;;;18.07;73.67;100509.50;8287679;28;20129;-62
2023/07/13 01:39:50;;;;;;;4.57;1.00;;;;;;;17.92;74.21;100508.66;8289448;28;20399;-62
2023/07/13 03:01:20;;;;;;;5.90;1.00;;;;;;;15.57;85.62;100539.41;8208678;28;20470;-64
2023/07/13 03:05:22;;;;;;;4.22;0.75;;;;;;;15.60;85.48;100536.34;8239078;28;20122;-65
2023/07/13 03:09:23;;;;;;;2.08;0.60;;;;;;;15.57;85.28;100535.81;8227240;28;20046;-65
2023/07/13 03:13:26;;;;;;;4.18;1.02;;;;;;;15.47;86.13;100535.97;8241790;28;20047;-65
2023/07/13 03:17:27;;;;;;;1.67;0.88;;;;;;;15.67;85.70;100545.50;8233609;28;20038;-64
2023/07/13 03:21:28;;;;;;;2.65;0.85;;;;;;;15.44;87.76;100546.38;8236997;28;20039;-64
2023/07/13 03:25:29;;;;;;;1.85;0.80;;;;;;;14.94;90.16;100545.63;8237938;28;20039;-65
2023/07/13 03:29:31;;;;;;;4.05;1.30;;;;;;;14.89;91.15;100551.59;8237984;28;20418;-65
2023/07/13 03:33:32;;;;;;;10.02;1.40;;;;;;;14.79;91.03;100550.03;8234082;28;20057;-65
2023/07/13 03:37:32;;;;;;;4.97;0.95;;;;;;;14.85;90.60;100555.66;8239283;28;20038;-65
2023/07/13 03:41:33;;;;;;;3.85;1.10;;;;;;;14.76;91.29;100559.38;8234156;28;20061;-65
2023/07/13 03:45:33;;;;;;;10.93;1.50;;;;;;;14.97;90.12;100548.88;8239442;28;20070;-64
2023/07/13 03:49:34;;;;;;;11.73;1.15;;;;;;;15.23;89.16;100565.94;8232550;28;20094;-64
2023/07/13 03:53:39;;;;;;;3.65;1.00;;;;;;;14.75;92.49;100571.28;8235967;28;20035;-64
2023/07/13 03:57:39;;;;;;;2.90;0.82;;;;;;;14.98;92.53;100577.78;8230409;28;20466;-64
2023/07/13 04:01:43;;;;;;;6.05;1.17;;;;;;;14.78;93.43;100581.84;8213805;28;20063;-64
2023/07/13 04:05:46;;;;;;;8.68;1.27;;;;;;;14.65;94.24;100576.03;8214356;28;20101;-65
2023/07/13 04:09:47;;;;;;;4.60;1.30;;;;;;;15.05;92.57;100567.97;8213409;28;20043;-65
2023/07/13 04:13:48;;;;;;;3.97;1.45;;;;;;;15.28;91.55;100590.78;8213977;28;20039;-65
2023/07/13 04:17:48;;;;;;;3.03;1.02;;;;;;;15.52;90.42;100585.38;8213090;28;20537;-65
2023/07/13 04:21:49;;;;;;;4.80;1.45;;;;;;;15.42;88.89;100587.44;8210932;28;20569;-65
2023/07/13 04:25:52;;;;;;;7.70;1.35;;;;;;;15.56;88.90;100594.06;8213023;28;20038;-65
2023/07/13 04:29:53;;;;;;;5.27;1.30;;;;;;;15.63;88.04;100601.41;8207693;28;20039;-63
2023/07/13 04:33:53;;;;;;;3.08;1.25;;;;;;;15.77;88.26;100592.50;8210684;28;20512;-63
2023/07/13 04:37:54;;;;;;;6.90;2.03;;;;;;;16.15;87.61;100599.09;8211706;28;20049;-63
2023/07/13 04:41:55;;;;;;;5.07;1.35;;;;;;;16.49;86.20;100593.38;8211107;28;20043;-63
2023/07/13 04:45:57;;;;;;;2.17;1.38;;;;;;;16.63;84.87;100596.25;8211388;28;20051;-63
2023/07/13 04:49:57;;;;;;;7.72;1.35;;;;;;;16.80;84.95;100597.03;8207964;28;20054;-62
2023/07/13 04:53:58;;;;;;;5.55;1.45;;;;;;;17.09;85.41;100598.03;8213641;28;20312;-63
2023/07/13 04:57:59;;;;;;;3.40;1.00;;;;;;;17.54;82.83;100598.06;8209495;28;20065;-64
2023/07/13 05:02:01;;;;;;;4.32;1.10;;;;;;;17.73;82.05;100594.00;8210258;28;20046;-65
2023/07/13 05:06:05;;;;;;;8.63;1.10;;;;;;;18.11;80.71;100606.59;8211549;28;20549;-66
2023/07/13 05:10:07;;;;;;;8.82;2.13;;;;;;;18.50;78.49;100607.22;8210530;28;20557;-65
2023/07/13 05:14:09;;;;;;;7.70;1.73;;;;;;;18.28;79.97;100613.63;8210185;28;20174;-65
2023/07/13 05:18:10;;;;;;;4.53;1.58;;;;;;;18.29;80.02;100615.31;8205110;28;20043;-64
2023/07/13 05:22:10;;;;;;;7.97;1.73;;;;;;;18.88;78.42;100616.16;8208096;28;20122;-64
2023/07/13 05:26:11;;;;;;;7.38;1.65;;;;;;;19.08;78.12;100623.59;8209310;28;20035;-63
2023/07/13 05:30:12;;;;;;;10.25;1.80;;;;;;;19.09;77.80;100625.28;8206919;28;20054;-63
2023/07/13 05:34:12;;;;;;;15.73;1.58;;;;;;;19.20;76.69;100633.00;8220745;28;20045;-63
2023/07/13 05:38:13;;;;;;;8.70;1.42;;;;;;;19.54;75.82;100634.25;8205747;28;20047;-64
2023/07/13 05:42:13;;;;;;;9.98;1.40;;;;;;;19.48;77.62;100635.03;8208497;28;20043;-63
2023/07/13 05:46:14;;;;;;;5.20;1.63;;;;;;;20.16;73.76;100640.75;8210046;28;20050;-63
2023/07/13 05:50:14;;;;;;;9.35;1.73;;;;;;;20.35;73.67;100642.81;8208293;28;20035;-60
2023/07/13 05:54:15;;;;;;;13.52;1.63;;;;;;;20.66;72.90;100651.47;8206447;28;20035;-63
2023/07/13 05:58:17;;;;;;;4.60;0.93;;;;;;;20.36;74.03;100647.25;8206396;28;20158;-63
2023/07/13 06:02:17;;;;;;;45.83;5.15;;;;;;;20.38;74.85;100661.63;8213109;28;20121;-62
2023/07/13 06:06:17;;;;;;;8.03;2.03;;;;;;;20.40;73.79;100659.53;8207452;28;20106;-61
2023/07/13 06:10:18;;;;;;;6.60;1.30;;;;;;;20.20;75.09;100664.03;8211158;28;20702;-65
2023/07/13 06:14:18;;;;;;;5.65;1.40;;;;;;;20.16;75.17;100658.06;8209791;28;20039;-61
2023/07/13 06:18:19;;;;;;;29.73;3.28;;;;;;;20.46;73.86;100658.75;8207662;28;20454;-62
2023/07/13 06:22:19;;;;;;;11.23;1.88;;;;;;;20.71;73.32;100668.19;8210254;28;20142;-62
2023/07/13 06:26:20;;;;;;;8.95;1.40;;;;;;;20.51;73.06;100658.97;8210288;28;20059;-62
2023/07/13 06:30:21;;;;;;;5.80;1.63;;;;;;;20.49;73.92;100672.06;8208990;28;20086;-62
2023/07/13 06:34:21;;;;;;;80.88;6.85;;;;;;;20.81;73.20;100666.78;8209696;28;20043;-59
2023/07/13 06:38:22;;;;;;;11.25;2.00;;;;;;;21.15;72.33;100682.41;8225652;28;20047;-60
2023/07/13 06:42:22;;;;;;;7.78;1.63;;;;;;;20.80;72.60;100686.22;8210546;28;20035;-64
2023/07/13 06:46:23;;;;;;;7.90;2.00;;;;;;;20.15;74.62;100693.97;8210321;28;20070;-63
2023/07/13 06:50:23;;;;;;;17.30;1.70;;;;;;;20.09;75.09;100690.09;8208446;28;20043;-64
2023/07/13 06:54:24;;;;;;;16.75;1.58;;;;;;;20.46;74.90;100697.19;8208483;28;20402;-64
2023/07/13 06:58:24;;;;;;;7.95;2.05;;;;;;;20.74;73.69;100698.84;8210163;28;20175;-63
2023/07/13 07:02:25;;;;;;;10.73;1.60;;;;;;;21.01;72.86;100702.63;8207426;28;20121;-64
2023/07/13 07:06:25;;;;;;;21.42;2.67;;;;;;;21.23;72.56;100701.50;8209030;28;20069;-64
2023/07/13 07:10:26;;;;;;;10.38;1.25;;;;;;;21.49;71.29;100701.59;8213183;28;20475;-63
2023/07/13 07:14:27;;;;;;;292.77;25.80;;;;;;;21.79;70.90;100697.47;8209365;28;20046;-63
2023/07/13 07:18:27;;;;;;;7.63;1.42;;;;;;;21.58;70.65;100711.34;8206015;28;20031;-62
2023/07/13 07:22:28;;;;;;;45.65;4.45;;;;;;;21.38;71.70;100713.19;8209670;28;20039;-63
2023/07/13 07:26:28;;;;;;;7.90;1.48;;;;;;;21.22;72.53;100716.28;8204581;28;20412;-63
2023/07/13 07:30:28;;;;;;;10.05;1.52;;;;;;;21.18;72.76;100709.50;8218721;28;20043;-63
2023/07/13 07:34:30;;;;;;;6.35;1.60;;;;;;;21.24;72.44;100715.03;8212157;28;20041;-63
2023/07/13 07:38:30;;;;;;;7.65;1.33;;;;;;;21.28;72.44;100709.97;8214302;28;20063;-63
2023/07/13 07:42:31;;;;;;;7.25;1.75;;;;;;;21.41;72.42;100720.19;8214846;28;20487;-63
2023/07/13 07:46:31;;;;;;;8.23;1.83;;;;;;;21.46;72.27;100712.19;8215436;28;20558;-63
2023/07/13 07:50:32;;;;;;;11.27;1.60;;;;;;;21.48;72.22;100708.16;8211545;28;20047;-63
2023/07/13 07:54:32;;;;;;;36.30;2.17;;;;;;;21.81;70.16;100711.03;8215371;28;20044;-62
2023/07/13 07:58:33;;;;;;;8.05;1.27;;;;;;;21.77;70.91;100710.59;8215184;28;20039;-63
2023/07/13 08:02:33;;;;;;;9.43;1.33;;;;;;;21.77;70.22;100705.09;8212280;28;20110;-63
2023/07/13 08:06:34;;;;;;;14.05;1.85;;;;;;;22.15;70.13;100708.97;8214078;28;20078;-63
2023/07/13 08:10:37;;;;;;;7.07;1.73;;;;;;;22.27;67.94;100707.28;8216684;28;20042;-63
2023/07/13 08:14:38;;;;;;;13.43;1.48;;;;;;;22.61;67.59;100704.34;8213125;28;20122;-63
2023/07/13 08:18:38;;;;;;;6.47;1.40;;;;;;;22.47;67.12;100701.75;8211079;28;20043;-63
2023/07/13 08:22:39;;;;;;;10.32;1.73;;;;;;;22.70;65.81;100694.78;8214768;28;20032;-66
2023/07/13 08:26:39;;;;;;;14.33;2.07;;;;;;;22.90;65.36;100701.09;8214183;28;20049;-63
2023/07/13 08:30:39;;;;;;;39.03;3.83;;;;;;;22.92;64.71;100689.84;8213117;28;20631;-63
2023/07/13 08:34:40;;;;;;;7.22;1.40;;;;;;;22.97;65.18;100688.13;8212513;28;20490;-63
2023/07/13 08:38:40;;;;;;;5.15;1.40;;;;;;;23.27;66.81;100687.63;8212393;28;20039;-64
2023/07/13 08:42:46;;;;;;;12.18;1.50;;;;;;;23.16;65.31;100687.22;8213972;28;20043;-62
2023/07/13 08:46:49;;;;;;;30.25;2.78;;;;;;;23.06;65.64;100697.84;8213981;28;20050;-64
2023/07/13 08:51:17;;;;;;;16.88;2.13;;;;;;;22.83;65.61;100691.13;8209129;28;20051;-63
2023/07/13 08:55:24;;;;;;;9.82;1.73;;;;;;;22.91;66.66;100691.72;8212493;28;20035;-62
2023/07/13 08:59:28;;;;;;;7.97;1.95;;;;;;;22.96;65.37;100697.47;8213328;28;20031;-65
2023/07/13 09:03:38;;;;;;;4.95;1.13;;;;;;;22.68;66.06;100696.88;8210979;28;20035;-65
2023/07/13 09:12:33;;;;;;;6.07;0.88;;;;;;;23.34;62.95;100693.97;8389707;27;20485;-64
2023/07/13 09:16:34;;;;;;;13.35;1.77;;;;;;;23.23;62.81;100697.38;8386619;27;20040;-63
2023/07/13 09:20:42;;;;;;;9.90;1.30;;;;;;;23.62;62.00;100699.97;8383843;28;20044;-64
2023/07/13 09:24:57;;;;;;;13.13;1.08;;;;;;;23.86;61.51;100696.44;8400474;27;20037;-64
2023/07/13 09:29:10;;;;;;;61.47;4.22;;;;;;;24.13;60.66;100701.63;8398207;27;20037;-64
2023/07/13 09:33:11;;;;;;;11.07;1.43;;;;;;;24.06;60.62;100705.50;8376885;28;20520;-64
2023/07/13 09:37:11;;;;;;;1999.90;611.95;;;;;;;24.72;58.90;100690.03;8383595;28;20410;-64
2023/07/13 09:41:27;;;;;;;1999.90;464.10;;;;;;;25.04;57.76;100702.69;8385174;27;20040;-64
2023/07/13 09:45:30;;;;;;;102.53;9.70;;;;;;;25.20;58.26;100710.38;8383372;27;20041;-64
2023/07/13 09:49:36;;;;;;;15.55;1.60;;;;;;;24.78;58.23;100697.44;8381257;27;20048;-63
2023/07/13 09:53:36;;;;;;;29.73;2.42;;;;;;;24.20;57.78;100701.53;8383866;28;20044;-63
2023/07/13 09:57:46;;;;;;;23.38;1.80;;;;;;;24.32;59.36;100699.75;8382872;28;20089;-62
2023/07/13 10:01:48;;;;;;;41.90;2.60;;;;;;;24.77;57.40;100681.91;8378825;28;20040;-58
2023/07/13 10:05:52;;;;;;;215.63;15.20;;;;;;;25.93;56.07;100689.81;8375714;27;20044;-57
2023/07/13 10:09:54;;;;;;;14.57;0.93;;;;;;;27.04;53.45;100689.88;8409587;27;20037;-63
2023/07/13 10:13:59;;;;;;;14.23;1.52;;;;;;;26.92;53.24;100695.41;8383826;27;20041;-64
2023/07/13 10:18:00;;;;;;;7.32;0.80;;;;;;;26.19;54.48;100699.66;8379535;28;20045;-64
2023/07/13 10:22:14;;;;;;;5.22;0.98;;;;;;;26.10;55.07;100701.94;8402314;27;20041;-64
2023/07/13 10:26:21;;;;;;;26.30;1.55;;;;;;;27.49;52.87;100700.06;8360221;28;20105;-64
2023/07/13 10:30:28;;;;;;;8.43;1.98;;;;;;;26.74;53.64;100701.94;8357088;28;20045;-64
2023/07/13 10:34:28;;;;;;;7.22;0.90;;;;;;;25.68;55.38;100700.19;8355334;28;20051;-63
2023/07/13 10:38:29;;;;;;;3.08;0.80;;;;;;;25.26;56.19;100698.38;8358947;28;20511;-64
2023/07/13 10:42:37;;;;;;;7.80;0.90;;;;;;;26.32;54.05;100700.31;8358946;28;20058;-64
2023/07/13 10:46:38;;;;;;;25.27;2.17;;;;;;;25.99;55.52;100708.31;8357355;28;20061;-63
2023/07/13 10:50:42;;;;;;;23.58;2.53;;;;;;;25.17;56.41;100716.38;8357865;28;20036;-64
2023/07/13 10:54:42;;;;;;;;;;;;;;;25.00;57.69;100726.34;8358128;28;20047;-64
2023/07/13 10:58:44;;;;;;;13.97;1.80;;;;;;;24.91;57.80;100722.19;8357277;28;19917;-65
2023/07/13 11:02:57;;;;;;;13.48;1.90;;;;;;;26.56;54.22;100715.06;8351951;28;20325;-65
2023/07/13 11:07:11;;;;;;;17.98;1.55;;;;;;;25.28;56.62;100718.34;8343709;28;20477;-65
2023/07/13 11:11:34;;;;;;;10.15;1.70;;;;;;;24.30;59.20;100724.00;8346749;28;20037;-63
2023/07/13 11:15:47;;;;;;;26.58;2.33;;;;;;;23.93;58.38;100730.38;8356394;28;20051;-63
2023/07/13 11:19:52;;;;;;;4.30;1.30;;;;;;;24.19;58.01;100727.50;8354667;28;20037;-62
2023/07/13 11:24:02;;;;;;;6.00;1.27;;;;;;;24.18;58.49;100723.03;8352885;28;20410;-63
2023/07/13 11:28:23;;;;;;;6.80;1.30;;;;;;;24.32;59.41;100719.09;8356394;28;20478;-62
2023/07/13 11:32:29;;;;;;;8.82;1.20;;;;;;;24.28;59.66;100721.44;8354511;28;20045;-63
2023/07/13 11:36:35;;;;;;;7.07;1.35;;;;;;;24.31;57.16;100725.69;8357483;28;20033;-62
2023/07/13 11:40:36;;;;;;;8.07;1.55;;;;;;;24.20;57.34;100732.78;8379045;28;20112;-62
2023/07/13 11:44:45;;;;;;;5.00;1.20;;;;;;;23.96;57.86;100722.53;8351937;28;20063;-62
2023/07/13 11:48:47;;;;;;;5.57;0.98;;;;;;;24.02;58.88;100729.09;8355236;28;20029;-62
2023/07/13 11:52:50;;;;;;;7.13;0.93;;;;;;;24.06;59.03;100728.41;8355136;28;20049;-62
2023/07/13 11:56:51;;;;;;;4.25;1.08;;;;;;;24.20;58.95;100723.66;8355634;28;20045;-62
2023/07/13 12:00:54;;;;;;;3.88;1.05;;;;;;;25.08;57.45;100727.97;8354441;28;20526;-62
2023/07/13 12:04:55;;;;;;;4.28;1.33;;;;;;;26.44;53.61;100726.13;8355031;28;20365;-62
2023/07/13 12:08:58;;;;;;;3.95;0.95;;;;;;;25.57;54.08;100720.38;8353900;28;20098;-62
2023/07/13 12:13:02;;;;;;;11.80;1.13;;;;;;;24.96;54.62;100725.13;8356419;28;20036;-62
2023/07/13 12:17:11;;;;;;;5.93;1.02;;;;;;;24.57;55.42;100725.47;8354826;28;20044;-62
2023/07/13 12:21:16;;;;;;;12.23;1.05;;;;;;;24.45;56.35;100716.22;8367393;28;20037;-62
2023/07/13 12:25:18;;;;;;;16.92;1.55;;;;;;;24.37;56.37;100719.28;8366393;28;20047;-64
2023/07/13 12:29:19;;;;;;;56.40;3.50;;;;;;;24.40;56.11;100730.72;8370536;28;20056;-62
2023/07/13 12:33:19;;;;;;;19.38;2.33;;;;;;;24.45;56.00;100725.38;8368548;28;20835;-62
2023/07/13 12:37:20;;;;;;;27.70;2.03;;;;;;;24.95;55.05;100723.44;8371891;28;20052;-60
2023/07/13 12:41:20;;;;;;;4.28;1.05;;;;;;;25.26;53.77;100720.53;8365620;28;20094;-55
2023/07/13 12:45:23;;;;;;;43.65;4.43;;;;;;;25.47;54.03;100728.41;8353786;28;20085;-56
2023/07/13 12:49:29;;;;;;;35.13;1.95;;;;;;;25.38;53.40;100723.41;8347188;28;20167;-60
2023/07/13 12:53:31;;;;;;;3.00;0.80;;;;;;;25.48;53.19;100716.25;8347509;28;20045;-61
2023/07/13 12:57:32;;;;;;;6.88;1.42;;;;;;;25.55;53.52;100722.53;8351472;28;20039;-60
2023/07/13 13:01:37;;;;;;;2.25;0.70;;;;;;;25.69;54.55;100721.28;8351363;28;20491;-61
2023/07/13 13:05:37;;;;;;;20.13;2.58;;;;;;;25.78;53.44;100716.25;8345862;28;20029;-58
2023/07/13 13:09:38;;;;;;;11.52;1.45;;;;;;;25.90;52.38;100718.00;8351260;28;20094;-58
2023/07/13 13:13:38;;;;;;;5.75;1.38;;;;;;;25.83;53.37;100717.22;8352214;28;20546;-57
2023/07/13 13:17:40;;;;;;;10.18;1.70;;;;;;;25.94;52.76;100713.69;8350327;28;20063;-56
2023/07/13 13:21:41;;;;;;;9.73;1.10;;;;;;;26.16;51.84;100701.00;8350795;28;20041;-56
2023/07/13 13:25:41;;;;;;;4.63;1.02;;;;;;;26.01;51.89;100703.38;8349491;28;20037;-56
2023/07/13 13:29:42;;;;;;;7.35;1.10;;;;;;;26.05;52.43;100707.38;8350974;28;20045;-56
2023/07/13 13:33:45;;;;;;;2.42;0.68;;;;;;;26.08;52.56;100695.81;8349527;28;20048;-60
2023/07/13 13:37:50;;;;;;;3.30;0.90;;;;;;;25.82;52.42;100698.94;8350684;28;20116;-56
2023/07/13 13:41:52;;;;;;;9.70;0.70;;;;;;;25.63;51.71;100702.84;8353556;28;20086;-57
2023/07/13 13:45:56;;;;;;;3.25;0.82;;;;;;;25.86;51.96;100710.41;8347586;28;20473;-62
2023/07/13 13:49:57;;;;;;;2.90;1.17;;;;;;;25.51;52.11;100713.00;8349429;28;20566;-60
2023/07/13 13:53:58;;;;;;;5.03;0.75;;;;;;;25.54;52.74;100715.31;8351929;28;20406;-59
2023/07/13 13:57:58;;;;;;;7.82;1.15;;;;;;;25.35;52.16;100707.25;8356201;28;20041;-59
2023/07/13 14:02:00;;;;;;;8.50;1.17;;;;;;;25.30;52.62;100701.53;8352935;28;20037;-63
2023/07/13 14:06:01;;;;;;;3.33;0.88;;;;;;;25.53;53.43;100699.78;8352759;28;20310;-63
2023/07/13 14:10:01;;;;;;;2.70;0.70;;;;;;;25.98;53.01;100692.75;8361609;28;20052;-63
2023/07/13 14:14:04;;;;;;;18.60;1.67;;;;;;;25.71;52.45;100704.44;8359776;28;20284;-63
2023/07/13 14:18:04;;;;;;;4.50;0.68;;;;;;;25.41;53.59;100712.72;8355209;28;20037;-63
2023/07/13 14:22:07;;;;;;;2.20;0.70;;;;;;;25.47;52.11;100705.41;8357819;28;20041;-63
2023/07/13 14:26:13;;;;;;;2.97;0.80;;;;;;;25.30;52.36;100716.22;8354462;28;20048;-63
2023/07/13 14:30:17;;;;;;;3.17;0.85;;;;;;;25.41;51.88;100706.31;8355804;28;20041;-63
2023/07/13 14:34:18;;;;;;;2.78;0.73;;;;;;;25.42;52.12;100702.47;8353854;28;20486;-63
2023/07/13 14:38:20;;;;;;;2.72;0.70;;;;;;;25.40;52.56;100713.78;8357395;28;20426;-63
2023/07/13 14:42:20;;;;;;;3.13;0.80;;;;;;;25.36;52.52;100704.25;8357897;28;20041;-63
2023/07/13 14:46:29;;;;;;;51.33;1.90;;;;;;;25.53;52.10;100710.88;8355642;28;20053;-63
2023/07/13 14:50:32;;;;;;;3.22;1.02;;;;;;;25.75;51.99;100714.81;8356909;28;20564;-63
2023/07/13 14:54:33;;;;;;;7.77;0.97;;;;;;;25.80;52.42;100706.63;8372858;28;20063;-63
2023/07/13 14:58:33;;;;;;;1.80;0.90;;;;;;;25.70;52.40;100711.03;8361103;28;20040;-61
2023/07/13 15:02:37;;;;;;;18.02;1.30;;;;;;;25.48;52.87;100716.25;8350079;28;20341;-61
2023/07/13 15:07:02;;;;;;;3.40;0.68;;;;;;;25.41;53.38;100712.72;8355905;28;20512;-61
2023/07/13 15:11:04;;;;;;;4.20;0.82;;;;;;;25.24;52.23;100708.84;8352666;28;20276;-60
2023/07/13 15:15:05;;;;;;;4.45;0.95;;;;;;;25.24;53.32;100713.50;8351526;28;20058;-60
2023/07/13 15:19:10;;;;;;;4.65;0.90;;;;;;;25.09;53.46;100715.84;8384214;28;20044;-61
2023/07/13 15:23:12;;;;;;;1.83;0.77;;;;;;;24.89;54.26;100713.28;8383855;28;20207;-61
2023/07/13 15:27:12;;;;;;;8.10;1.35;;;;;;;24.88;54.70;100714.34;8356555;28;20534;-60
2023/07/13 15:31:23;;;;;;;2.05;0.75;;;;;;;24.84;54.38;100707.59;8348895;28;20402;-61
2023/07/13 15:35:26;;;;;;;1.80;0.80;;;;;;;24.74;54.23;100710.88;8351883;28;20048;-60
2023/07/13 15:39:26;;;;;;;3.40;1.10;;;;;;;24.76;54.58;100718.94;8355494;28;20071;-60
2023/07/13 15:43:31;;;;;;;36.97;1.83;;;;;;;24.73;56.58;100719.41;8356099;28;20531;-61
2023/07/13 15:47:32;;;;;;;15.13;1.77;;;;;;;24.07;59.67;100729.28;8359068;28;20119;-60
2023/07/13 15:51:34;;;;;;;12.73;1.60;;;;;;;23.48;61.52;100724.03;8350052;28;20056;-61
2023/07/13 15:55:39;;;;;;;4.97;1.10;;;;;;;23.16;62.99;100731.38;8353963;28;20272;-60
2023/07/13 15:59:41;;;;;;;4.93;1.20;;;;;;;22.99;63.41;100741.16;8353562;28;20033;-61
2023/07/13 16:03:41;;;;;;;3.90;1.10;;;;;;;22.84;65.01;100742.47;8350822;28;20039;-61
2023/07/13 16:07:45;;;;;;;3.50;0.95;;;;;;;22.86;64.13;100732.06;8354939;28;20036;-61
2023/07/13 16:11:45;;;;;;;4.07;1.25;;;;;;;22.68;64.76;100735.50;8354048;28;20085;-61
2023/07/13 16:15:47;;;;;;;3.42;1.25;;;;;;;22.65;64.66;100722.13;8352829;28;20045;-60
2023/07/13 16:19:47;;;;;;;5.13;1.30;;;;;;;22.55;64.99;100726.38;8351064;28;20070;-61
2023/07/13 16:23:48;;;;;;;3.30;1.27;;;;;;;22.52;65.33;100726.81;8348921;28;20520;-61
2023/07/13 16:27:49;;;;;;;4.43;1.00;;;;;;;22.65;65.43;100733.16;8352597;28;20287;-60
2023/07/13 16:32:11;;;;;;;4.28;0.93;;;;;;;22.62;64.79;100738.25;8347081;28;20037;-61
2023/07/13 16:36:12;;;;;;;2.65;0.75;;;;;;;22.56;65.24;100734.44;8343794;28;20117;-61
2023/07/13 16:40:21;;;;;;;3.05;1.15;;;;;;;22.58;65.70;100740.59;8352650;28;20036;-61
2023/07/13 16:44:24;;;;;;;6.28;1.13;;;;;;;22.74;65.41;100739.28;8362804;28;20098;-60
2023/07/13 16:48:29;;;;;;;4.25;2.70;;;;;;;22.82;64.98;100739.94;8352251;28;20498;-61
2023/07/13 16:52:30;;;;;;;5.50;2.72;;;;;;;22.89;64.62;100740.75;8349177;28;20072;-61
2023/07/13 16:56:34;;;;;;;2.80;1.00;;;;;;;22.94;64.59;100731.84;8352282;28;20120;-61
2023/07/13 17:00:37;;;;;;;7.10;1.05;;;;;;;22.85;64.56;100739.50;8348699;28;20040;-61
2023/07/13 17:04:37;;;;;;;5.93;0.95;;;;;;;22.79;64.85;100740.38;8368357;28;20044;-62
2023/07/13 17:08:38;;;;;;;5.35;1.10;;;;;;;22.78;64.90;100743.34;8369137;28;20119;-61
2023/07/13 17:12:38;;;;;;;2.47;0.77;;;;;;;22.86;65.02;100746.72;8368559;28;20043;-61
2023/07/13 17:16:40;;;;;;;6.18;1.33;;;;;;;23.01;65.47;100755.59;8368363;28;20132;-61
2023/07/13 17:20:44;;;;;;;2.90;0.90;;;;;;;23.00;64.58;100753.88;8368516;28;20041;-61
2023/07/13 17:24:48;;;;;;;6.28;1.30;;;;;;;23.05;66.24;100756.00;8368819;28;20086;-60
2023/07/13 17:28:49;;;;;;;5.30;0.98;;;;;;;23.05;62.31;100751.34;8369010;28;20056;-61
2023/07/13 17:32:52;;;;;;;4.13;0.82;;;;;;;22.84;62.85;100743.31;8371449;28;20466;-61
2023/07/13 17:36:52;;;;;;;3.97;1.20;;;;;;;22.95;63.69;100761.97;8364552;28;20028;-61
2023/07/13 17:40:52;;;;;;;3.43;1.00;;;;;;;22.82;62.99;100750.97;8364842;28;20584;-61
2023/07/13 17:44:53;;;;;;;4.18;1.30;;;;;;;22.81;62.53;100749.25;8370972;28;20282;-61
2023/07/13 17:48:54;;;;;;;6.03;1.10;;;;;;;22.80;62.77;100746.69;8370504;28;20041;-61
2023/07/13 17:52:56;;;;;;;5.53;1.20;;;;;;;22.83;63.73;100744.38;8367740;28;20419;-61
2023/07/13 17:56:56;;;;;;;4.22;0.95;;;;;;;23.00;62.70;100742.03;8373456;28;20121;-60
2023/07/13 18:00:56;;;;;;;5.00;1.10;;;;;;;23.09;61.80;100741.56;8354411;28;20038;-61
2023/07/13 18:04:59;;;;;;;4.55;1.02;;;;;;;23.09;61.45;100740.72;8354952;28;20272;-61
2023/07/13 18:09:03;;;;;;;4.53;1.00;;;;;;;23.16;62.83;100744.31;8349370;28;20387;-61
2023/07/13 18:13:04;;;;;;;5.57;1.08;;;;;;;23.01;62.10;100741.81;8349740;28;20053;-61
2023/07/13 18:17:06;;;;;;;5.05;0.90;;;;;;;22.94;62.31;100746.47;8354495;28;20052;-61
2023/07/13 18:21:09;;;;;;;3.88;0.68;;;;;;;22.84;63.89;100751.56;8353339;28;20156;-62
2023/07/13 18:25:14;;;;;;;7.17;1.50;;;;;;;22.77;63.91;100752.66;8355130;28;20033;-61
2023/07/13 18:29:14;;;;;;;2.25;1.00;;;;;;;22.97;64.17;100761.75;8355982;28;20064;-61
2023/07/13 18:33:24;;;;;;;2.80;0.90;;;;;;;22.75;64.23;100755.63;8351926;28;20045;-61
2023/07/13 18:37:25;;;;;;;2.75;0.95;;;;;;;22.60;65.57;100763.25;8353685;28;20058;-61
2023/07/13 18:41:26;;;;;;;3.65;1.40;;;;;;;22.55;65.23;100757.56;8353725;28;20050;-61
2023/07/13 18:45:26;;;;;;;6.85;0.90;;;;;;;22.37;66.22;100760.06;8353628;28;20073;-61
2023/07/13 18:49:27;;;;;;;3.47;1.23;;;;;;;22.22;66.99;100753.91;8350691;28;20045;-61
2023/07/13 18:53:28;;;;;;;5.05;0.90;;;;;;;22.16;66.42;100760.25;8345316;28;20095;-61
2023/07/13 18:57:28;;;;;;;7.32;1.35;;;;;;;22.07;66.64;100758.75;8352461;28;20068;-61
2023/07/13 19:01:34;;;;;;;3.45;0.98;;;;;;;21.94;68.09;100760.63;8341917;28;20047;-61
2023/07/13 19:05:36;;;;;;;2.47;1.02;;;;;;;22.10;66.62;100763.84;8349282;28;20037;-62
2023/07/13 19:09:38;;;;;;;3.63;0.98;;;;;;;21.90;68.63;100771.22;8366291;28;20044;-62
2023/07/13 19:13:38;;;;;;;1.75;1.10;;;;;;;21.71;70.32;100766.44;8353195;28;20056;-62
2023/07/13 19:17:39;;;;;;;2.72;1.25;;;;;;;21.47;70.06;100768.88;8352502;28;20132;-61
2023/07/13 19:21:39;;;;;;;4.63;1.52;;;;;;;21.25;72.79;100776.38;8353092;28;20028;-62
2023/07/13 19:25:40;;;;;;;3.97;1.58;;;;;;;21.19;70.34;100774.44;8354412;28;20514;-63
2023/07/13 19:29:41;;;;;;;9.70;1.63;;;;;;;21.22;71.34;100777.66;8352924;28;20083;-61
2023/07/13 19:33:41;;;;;;;5.35;1.33;;;;;;;21.36;72.88;100789.56;8352319;28;20038;-61
2023/07/13 19:37:42;;;;;;;3.15;1.17;;;;;;;21.10;77.22;100800.41;8353199;28;20040;-61
2023/07/13 19:41:42;;;;;;;4.97;1.30;;;;;;;21.12;73.97;100792.81;8353735;28;20043;-61
2023/07/13 19:45:43;;;;;;;2.47;1.08;;;;;;;21.19;73.08;100804.69;8352890;28;20048;-61
2023/07/13 19:49:44;;;;;;;7.22;1.10;;;;;;;21.31;74.39;100797.56;8351370;28;20037;-61
2023/07/13 19:53:48;;;;;;;7.63;1.90;;;;;;;20.95;76.07;100810.69;8348151;28;20132;-60
2023/07/13 19:57:50;;;;;;;3.90;1.30;;;;;;;20.86;75.85;100806.38;8347517;28;20120;-62
2023/07/13 20:01:50;;;;;;;2.03;1.25;;;;;;;20.83;73.59;100804.84;8350103;28;20036;-60
2023/07/13 20:05:52;;;;;;;2.72;1.10;;;;;;;20.70;74.65;100818.47;8350535;28;20045;-59
2023/07/13 20:09:53;;;;;;;3.80;1.33;;;;;;;20.67;74.73;100816.13;8352063;28;20049;-60